Time;durP1;ratioP1;P1;durP2;ratioP2;P2;SDS_P1;SDS_P2;PMS_P1;PMS_P2;Temp;Humidity;BMP_temperature;BMP_pressure;BME280_temperature;BME280_humidity;BME280_pressure;Samples;Min_cycle;Max_cycle;Signal;HPM_P1;HPM_P2
2021/05/26 00:00:55;;;;;;;3.40;2.83;;;;;;;;;;5077417;28;20526;-71
2021/05/26 00:03:23;;;;;;;5.50;3.13;;;;;;;;;;5076837;28;20547;-70
2021/05/26 00:05:50;;;;;;;3.20;2.70;;;;;;;;;;5077429;28;20453;-71
2021/05/26 00:08:25;;;;;;;4.80;2.57;;;;;;;;;;5077353;28;20500;-71
2021/05/26 00:10:53;;;;;;;4.33;2.37;;;;;;;;;;5076341;28;20885;-70
2021/05/26 00:13:20;;;;;;;3.63;2.93;;;;;;;;;;5076033;28;20538;-71
2021/05/26 00:15:49;;;;;;;3.43;2.70;;;;;;;;;;5076189;28;20461;-71
2021/05/26 00:18:16;;;;;;;3.67;2.63;;;;;;;;;;5077028;28;20474;-71
2021/05/26 00:20:44;;;;;;;4.07;2.80;;;;;;;;;;5077098;28;20469;-72
2021/05/26 00:23:12;;;;;;;3.93;3.27;;;;;;;;;;5075690;28;20500;-71
2021/05/26 00:25:39;;;;;;;4.40;4.00;;;;;;;;;;5076679;28;20529;-71
2021/05/26 00:28:06;;;;;;;7.20;4.20;;;;;;;;;;5076279;28;20452;-71
2021/05/26 00:30:43;;;;;;;4.73;3.17;;;;;;;;;;5076937;28;20453;-71
2021/05/26 00:33:11;;;;;;;6.93;3.67;;;;;;;;;;5076678;28;20480;-71
2021/05/26 00:35:40;;;;;;;4.67;3.47;;;;;;;;;;5076342;28;20460;-71
2021/05/26 00:38:07;;;;;;;4.37;2.70;;;;;;;;;;5076669;28;20489;-71
2021/05/26 00:40:36;;;;;;;4.07;2.87;;;;;;;;;;5092977;28;20525;-71
2021/05/26 00:43:04;;;;;;;4.60;2.77;;;;;;;;;;5096919;28;20776;-70
2021/05/26 00:45:31;;;;;;;5.17;3.60;;;;;;;;;;5096685;28;20525;-70
2021/05/26 00:47:59;;;;;;;4.37;3.80;;;;;;;;;;5096662;28;20460;-70
2021/05/26 00:50:28;;;;;;;5.03;3.83;;;;;;;;;;5100354;28;20452;-71
2021/05/26 00:52:58;;;;;;;4.40;3.27;;;;;;;;;;5101306;28;20464;-71
2021/05/26 00:55:26;;;;;;;7.13;3.90;;;;;;;;;;5101175;28;20487;-71
2021/05/26 00:57:55;;;;;;;4.70;3.87;;;;;;;;;;5096735;28;20860;-71
2021/05/26 01:00:23;;;;;;;6.07;4.60;;;;;;;;;;5080017;28;20460;-71
2021/05/26 01:02:51;;;;;;;6.47;5.00;;;;;;;;;;5080940;28;20460;-71
2021/05/26 01:05:22;;;;;;;6.87;5.53;;;;;;;;;;5080522;28;20715;-71
2021/05/26 01:07:54;;;;;;;7.20;5.17;;;;;;;;;;5080976;28;20939;-71
2021/05/26 01:10:23;;;;;;;6.50;5.63;;;;;;;;;;5080198;28;20485;-71
2021/05/26 01:12:51;;;;;;;7.40;5.57;;;;;;;;;;5080839;28;20491;-71
2021/05/26 01:15:19;;;;;;;7.40;6.53;;;;;;;;;;5080400;28;20493;-71
2021/05/26 01:17:51;;;;;;;8.73;7.03;;;;;;;;;;5080124;28;20840;-72
2021/05/26 01:20:27;;;;;;;9.27;7.17;;;;;;;;;;5081272;28;20517;-71
2021/05/26 01:23:01;;;;;;;8.53;6.37;;;;;;;;;;5079888;28;20911;-72
2021/05/26 01:25:39;;;;;;;8.27;6.80;;;;;;;;;;5064015;28;20467;-71
2021/05/26 01:28:07;;;;;;;8.83;7.90;;;;;;;;;;5083326;28;21077;-71
2021/05/26 01:30:34;;;;;;;8.80;7.47;;;;;;;;;;5099431;28;20470;-71
2021/05/26 01:33:02;;;;;;;9.23;8.33;;;;;;;;;;5099426;28;20467;-70
2021/05/26 01:35:29;;;;;;;10.20;7.10;;;;;;;;;;5098849;28;20527;-71
2021/05/26 01:37:58;;;;;;;8.03;6.83;;;;;;;;;;5097848;28;20482;-71
2021/05/26 01:40:25;;;;;;;9.93;8.93;;;;;;;;;;5098106;28;20850;-71
2021/05/26 01:42:52;;;;;;;10.80;8.77;;;;;;;;;;5098793;28;20516;-71
2021/05/26 01:45:20;;;;;;;10.73;6.87;;;;;;;;;;5099656;28;20463;-71
2021/05/26 01:47:50;;;;;;;8.93;7.93;;;;;;;;;;5099454;28;20490;-71
2021/05/26 01:50:21;;;;;;;12.53;9.30;;;;;;;;;;5099889;28;21057;-71
2021/05/26 01:52:49;;;;;;;13.03;9.47;;;;;;;;;;5100159;28;20466;-71
2021/05/26 01:55:17;;;;;;;13.07;8.67;;;;;;;;;;5099389;28;20488;-71
2021/05/26 01:57:45;;;;;;;10.97;9.73;;;;;;;;;;5099914;28;20494;-71
2021/05/26 02:00:14;;;;;;;11.63;10.13;;;;;;;;;;5098902;28;20722;-70
2021/05/26 02:02:42;;;;;;;12.67;9.30;;;;;;;;;;5098153;28;20562;-71
2021/05/26 02:05:11;;;;;;;11.40;8.40;;;;;;;;;;5099232;28;20637;-71
2021/05/26 02:07:41;;;;;;;11.30;8.90;;;;;;;;;;5098156;28;20535;-71
2021/05/26 02:10:14;;;;;;;10.40;9.00;;;;;;;;;;5079702;28;20725;-71
2021/05/26 02:12:43;;;;;;;15.70;9.73;;;;;;;;;;5079888;28;20517;-73
2021/05/26 02:15:12;;;;;;;13.73;9.70;;;;;;;;;;5079884;28;20488;-71
2021/05/26 02:17:40;;;;;;;13.37;9.70;;;;;;;;;;5079512;28;20460;-71
2021/05/26 02:20:10;;;;;;;13.73;9.57;;;;;;;;;;5080145;28;20707;-70
2021/05/26 02:22:39;;;;;;;11.40;10.20;;;;;;;;;;5079784;28;20452;-70
2021/05/26 02:25:10;;;;;;;11.57;9.90;;;;;;;;;;5079586;28;20742;-71
2021/05/26 02:27:38;;;;;;;14.93;11.23;;;;;;;;;;5079734;28;20455;-71
2021/05/26 02:30:08;;;;;;;12.53;10.67;;;;;;;;;;5080420;28;20472;-71
2021/05/26 02:32:36;;;;;;;13.33;10.07;;;;;;;;;;5078934;28;20555;-71
2021/05/26 02:35:05;;;;;;;13.77;10.93;;;;;;;;;;5078621;28;20575;-70
2021/05/26 02:37:34;;;;;;;13.20;10.60;;;;;;;;;;5082956;28;20519;-71
2021/05/26 02:40:03;;;;;;;10.67;9.60;;;;;;;;;;5082480;28;20472;-70
2021/05/26 02:42:31;;;;;;;11.50;9.60;;;;;;;;;;5096145;28;20483;-71
2021/05/26 02:44:59;;;;;;;16.43;10.07;;;;;;;;;;5098292;28;20519;-71
2021/05/26 02:47:29;;;;;;;13.30;11.00;;;;;;;;;;5090204;28;20534;-71
2021/05/26 02:50:04;;;;;;;10.60;9.17;;;;;;;;;;5098606;28;20787;-71
2021/05/26 02:52:34;;;;;;;11.93;10.57;;;;;;;;;;5105498;28;20447;-72
2021/05/26 02:55:03;;;;;;;13.07;10.17;;;;;;;;;;5077976;28;20491;-70
2021/05/26 02:57:35;;;;;;;10.30;9.20;;;;;;;;;;5090411;28;20542;-71
2021/05/26 03:00:05;;;;;;;10.40;8.40;;;;;;;;;;5091172;28;20544;-71
2021/05/26 03:02:36;;;;;;;11.70;9.40;;;;;;;;;;5079802;28;20763;-71
2021/05/26 03:05:05;;;;;;;9.97;8.87;;;;;;;;;;5097596;28;20849;-71
2021/05/26 03:07:34;;;;;;;10.47;9.00;;;;;;;;;;5118530;27;20532;-71
2021/05/26 03:10:03;;;;;;;9.67;8.40;;;;;;;;;;5100757;28;20456;-71
2021/05/26 03:12:32;;;;;;;11.63;8.90;;;;;;;;;;5090383;28;20546;-71
2021/05/26 03:14:59;;;;;;;10.43;8.33;;;;;;;;;;5097418;28;20496;-71
2021/05/26 03:17:28;;;;;;;9.13;6.10;;;;;;;;;;5099571;28;20448;-71
2021/05/26 03:19:58;;;;;;;9.20;7.47;;;;;;;;;;5096163;27;20471;-71
2021/05/26 03:22:28;;;;;;;10.80;9.30;;;;;;;;;;5104230;28;20458;-71
2021/05/26 03:24:58;;;;;;;11.27;8.83;;;;;;;;;;5090591;27;20474;-71
2021/05/26 03:27:34;;;;;;;9.30;7.67;;;;;;;;;;5076779;28;20464;-71
2021/05/26 03:30:02;;;;;;;8.77;7.70;;;;;;;;;;5077148;28;20456;-70
2021/05/26 03:32:33;;;;;;;10.10;7.83;;;;;;;;;;5077143;28;20452;-70
2021/05/26 03:35:03;;;;;;;9.03;7.50;;;;;;;;;;5079860;28;20972;-70
2021/05/26 03:37:31;;;;;;;8.67;6.03;;;;;;;;;;5086241;28;20459;-71
2021/05/26 03:40:03;;;;;;;10.27;8.83;;;;;;;;;;5097462;28;20839;-71
2021/05/26 03:42:31;;;;;;;10.93;8.57;;;;;;;;;;5082505;28;20496;-71
2021/05/26 03:44:59;;;;;;;8.90;7.37;;;;;;;;;;5077036;28;20465;-71
2021/05/26 03:47:29;;;;;;;10.60;8.60;;;;;;;;;;5079368;28;20551;-71
2021/05/26 03:49:58;;;;;;;11.30;7.87;;;;;;;;;;5090462;28;20902;-70
2021/05/26 03:52:29;;;;;;;13.60;8.90;;;;;;;;;;5097331;28;20448;-71
2021/05/26 03:54:58;;;;;;;9.80;7.73;;;;;;;;;;5097292;28;20491;-71
2021/05/26 03:57:26;;;;;;;10.30;8.60;;;;;;;;;;5096977;28;20873;-70
2021/05/26 03:59:55;;;;;;;9.83;8.23;;;;;;;;;;5096313;28;20447;-71
2021/05/26 04:02:30;;;;;;;8.90;7.47;;;;;;;;;;5093777;28;20567;-71
2021/05/26 04:05:01;;;;;;;10.43;8.40;;;;;;;;;;5080446;28;20467;-70
2021/05/26 04:07:32;;;;;;;8.80;7.90;;;;;;;;;;5096160;28;20514;-70
2021/05/26 04:10:01;;;;;;;9.07;7.87;;;;;;;;;;5097359;28;20478;-71
2021/05/26 04:12:30;;;;;;;11.60;8.70;;;;;;;;;;5099608;28;20468;-71
2021/05/26 04:18:11;;;;;;;10.60;8.00;;;;;;;;;;5083571;28;20603;-71
2021/05/26 04:20:39;;;;;;;10.77;9.53;;;;;;;;;;5090885;28;20463;-71
2021/05/26 04:23:08;;;;;;;10.03;8.67;;;;;;;;;;5090220;28;20451;-72
2021/05/26 04:25:36;;;;;;;9.73;7.70;;;;;;;;;;5108650;27;20523;-70
2021/05/26 04:28:05;;;;;;;12.27;9.43;;;;;;;;;;5093329;28;20496;-70
2021/05/26 04:30:33;;;;;;;11.67;8.37;;;;;;;;;;5077672;28;20820;-71
2021/05/26 04:33:25;;;;;;;12.03;8.20;;;;;;;;;;5081778;28;20733;-71
2021/05/26 04:35:52;;;;;;;8.60;6.97;;;;;;;;;;5094755;28;20510;-71
2021/05/26 04:38:21;;;;;;;15.10;9.17;;;;;;;;;;5095752;28;20455;-71
2021/05/26 04:40:48;;;;;;;9.13;8.13;;;;;;;;;;5095415;28;20908;-71
2021/05/26 04:43:15;;;;;;;9.23;8.27;;;;;;;;;;5095781;28;20516;-71
2021/05/26 04:45:43;;;;;;;10.33;7.57;;;;;;;;;;5095576;28;20472;-70
2021/05/26 04:48:13;;;;;;;10.17;9.17;;;;;;;;;;5095658;28;20459;-70
2021/05/26 04:50:40;;;;;;;9.50;7.43;;;;;;;;;;5095781;28;20494;-70
2021/05/26 04:53:08;;;;;;;9.93;8.67;;;;;;;;;;5096368;28;20452;-70
2021/05/26 04:55:39;;;;;;;9.13;8.13;;;;;;;;;;5095710;28;20915;-70
2021/05/26 04:58:09;;;;;;;10.73;9.17;;;;;;;;;;5095449;28;20490;-70
2021/05/26 05:00:36;;;;;;;14.10;9.40;;;;;;;;;;5095925;28;20459;-70
2021/05/26 05:03:04;;;;;;;12.00;7.90;;;;;;;;;;5096390;28;20460;-70
2021/05/26 05:05:32;;;;;;;10.77;7.70;;;;;;;;;;5089409;28;20460;-70
2021/05/26 05:08:00;;;;;;;11.30;7.60;;;;;;;;;;5080422;28;20457;-70
2021/05/26 05:11:00;;;;;;;10.30;8.53;;;;;;;;;;5075187;28;20567;-70
2021/05/26 05:13:30;;;;;;;11.10;8.40;;;;;;;;;;5073129;28;20468;-70
2021/05/26 05:16:00;;;;;;;10.53;8.33;;;;;;;;;;5074323;28;20927;-70
2021/05/26 05:18:32;;;;;;;10.67;7.40;;;;;;;;;;5073817;28;20457;-69
2021/05/26 05:21:11;;;;;;;10.40;8.97;;;;;;;;;;5073236;28;20467;-70
2021/05/26 05:23:52;;;;;;;13.67;8.23;;;;;;;;;;5057046;28;20457;-71
2021/05/26 05:26:23;;;;;;;9.30;8.30;;;;;;;;;;5073990;28;20471;-71
2021/05/26 05:28:58;;;;;;;9.80;7.73;;;;;;;;;;5074837;28;20791;-69
2021/05/26 05:31:30;;;;;;;10.53;9.37;;;;;;;;;;5072788;28;20488;-71
2021/05/26 05:34:05;;;;;;;9.30;8.20;;;;;;;;;;5073431;28;20525;-71
2021/05/26 05:36:34;;;;;;;11.17;8.37;;;;;;;;;;5073960;28;20476;-71
2021/05/26 05:39:10;;;;;;;9.27;8.27;;;;;;;;;;5076637;28;20448;-70
2021/05/26 05:41:48;;;;;;;;;;;;;;;;;;;;;
2021/05/26 05:44:19;;;;;;;8.70;7.20;;;;;;;;;;5072898;28;20461;-70
2021/05/26 05:46:53;;;;;;;9.03;7.70;;;;;;;;;;5077200;28;20529;-71
2021/05/26 05:49:28;;;;;;;12.37;7.20;;;;;;;;;;5086008;28;20547;-71
2021/05/26 05:52:18;;;;;;;8.93;8.03;;;;;;;;;;5076116;28;20726;-71
2021/05/26 05:54:49;;;;;;;8.20;7.40;;;;;;;;;;5073614;28;20574;-72
2021/05/26 05:57:21;;;;;;;7.87;6.57;;;;;;;;;;5077295;28;20452;-71
2021/05/26 05:59:50;;;;;;;7.33;6.57;;;;;;;;;;5076387;28;20458;-70
2021/05/26 06:02:21;;;;;;;7.00;6.13;;;;;;;;;;5077470;28;20453;-71
2021/05/26 06:04:49;;;;;;;7.60;6.87;;;;;;;;;;5075915;28;20600;-71
2021/05/26 06:07:16;;;;;;;7.23;6.53;;;;;;;;;;5075286;28;20464;-71
2021/05/26 06:09:43;;;;;;;7.00;6.00;;;;;;;;;;5075965;28;20456;-71
2021/05/26 06:12:10;;;;;;;6.80;6.07;;;;;;;;;;5076170;28;20457;-72
2021/05/26 06:14:38;;;;;;;7.10;5.67;;;;;;;;;;5075764;28;20806;-70
2021/05/26 06:17:06;;;;;;;7.10;6.40;;;;;;;;;;5077167;28;20868;-70
2021/05/26 06:19:35;;;;;;;8.77;7.87;;;;;;;;;;5093931;28;20475;-71
2021/05/26 06:22:02;;;;;;;7.07;6.37;;;;;;;;;;5081769;28;20521;-70
2021/05/26 06:24:29;;;;;;;7.50;6.47;;;;;;;;;;5077036;28;20532;-71
2021/05/26 06:26:56;;;;;;;7.97;6.50;;;;;;;;;;5076975;28;20495;-70
2021/05/26 06:29:23;;;;;;;7.67;6.87;;;;;;;;;;5076166;28;20539;-69
2021/05/26 06:31:51;;;;;;;9.37;7.73;;;;;;;;;;5087743;28;20542;-70
2021/05/26 06:34:23;;;;;;;10.30;7.60;;;;;;;;;;5093535;28;20508;-69
2021/05/26 06:36:51;;;;;;;9.43;6.90;;;;;;;;;;5076335;28;20798;-70
2021/05/26 06:39:19;;;;;;;8.27;7.47;;;;;;;;;;5090287;28;20452;-71
2021/05/26 06:41:46;;;;;;;11.20;7.30;;;;;;;;;;5089093;28;20469;-70
2021/05/26 06:44:13;;;;;;;8.57;6.33;;;;;;;;;;5076780;28;20710;-70
2021/05/26 06:46:41;;;;;;;8.30;7.40;;;;;;;;;;5073415;28;20892;-69
2021/05/26 06:49:08;;;;;;;9.03;6.97;;;;;;;;;;5076175;28;20456;-69
2021/05/26 06:51:37;;;;;;;9.00;6.93;;;;;;;;;;5076085;28;20705;-69
2021/05/26 06:54:07;;;;;;;7.17;5.23;;;;;;;;;;5076180;28;20547;-70
2021/05/26 06:56:35;;;;;;;7.47;6.57;;;;;;;;;;5076398;28;20464;-69
2021/05/26 06:59:02;;;;;;;9.87;7.13;;;;;;;;;;5076594;28;20517;-69
2021/05/26 07:01:30;;;;;;;8.80;6.70;;;;;;;;;;5076994;28;20456;-69
2021/05/26 07:04:05;;;;;;;9.30;7.23;;;;;;;;;;5075761;28;20895;-69
2021/05/26 07:06:32;;;;;;;9.57;7.00;;;;;;;;;;5076964;28;20784;-69
2021/05/26 07:09:01;;;;;;;9.27;7.30;;;;;;;;;;5086285;28;21047;-70
2021/05/26 07:11:32;;;;;;;8.10;6.10;;;;;;;;;;5090047;28;20471;-70
2021/05/26 07:14:01;;;;;;;6.70;6.00;;;;;;;;;;5076179;28;20501;-69
2021/05/26 07:16:29;;;;;;;8.27;6.50;;;;;;;;;;5076865;28;21135;-70
2021/05/26 07:18:59;;;;;;;7.67;5.97;;;;;;;;;;5082940;28;20480;-70
2021/05/26 07:21:29;;;;;;;11.07;5.90;;;;;;;;;;5083778;28;20457;-69
2021/05/26 07:23:57;;;;;;;8.00;5.87;;;;;;;;;;5077798;28;20591;-70
2021/05/26 07:26:37;;;;;;;8.67;5.33;;;;;;;;;;5095444;28;20478;-69
2021/05/26 07:29:07;;;;;;;7.77;5.07;;;;;;;;;;5079725;28;20587;-70
2021/05/26 07:31:35;;;;;;;7.63;5.47;;;;;;;;;;5092171;28;20476;-69
2021/05/26 07:34:02;;;;;;;8.30;5.57;;;;;;;;;;5094695;28;20488;-69
2021/05/26 07:36:31;;;;;;;5.23;4.40;;;;;;;;;;5096455;28;20498;-69
2021/05/26 07:39:00;;;;;;;11.20;5.70;;;;;;;;;;5095672;28;20478;-69
2021/05/26 07:41:51;;;;;;;9.20;5.23;;;;;;;;;;5090566;28;20464;-69
2021/05/26 07:44:20;;;;;;;7.97;5.00;;;;;;;;;;5084295;28;20879;-69
2021/05/26 07:46:48;;;;;;;7.90;6.20;;;;;;;;;;5095505;28;20444;-70
2021/05/26 07:49:17;;;;;;;7.67;4.67;;;;;;;;;;5078461;28;20532;-72
2021/05/26 07:51:49;;;;;;;6.20;4.20;;;;;;;;;;5075715;28;20456;-71
2021/05/26 07:54:17;;;;;;;5.90;3.70;;;;;;;;;;5075952;28;20488;-71
2021/05/26 07:56:45;;;;;;;12.70;5.37;;;;;;;;;;5074962;28;20460;-71
2021/05/26 07:59:13;;;;;;;7.63;5.00;;;;;;;;;;5074490;28;20448;-70
2021/05/26 08:01:43;;;;;;;8.33;5.70;;;;;;;;;;5074671;28;20572;-70
2021/05/26 08:04:12;;;;;;;16.27;4.73;;;;;;;;;;5074843;28;20594;-69
2021/05/26 08:06:43;;;;;;;5.80;4.30;;;;;;;;;;5074981;28;20465;-69
2021/05/26 08:09:15;;;;;;;6.63;4.30;;;;;;;;;;5077456;28;20724;-69
2021/05/26 08:11:45;;;;;;;10.20;5.03;;;;;;;;;;5093132;28;20459;-70
2021/05/26 08:14:14;;;;;;;7.20;4.50;;;;;;;;;;5093695;28;20474;-69
2021/05/26 08:16:44;;;;;;;6.60;4.00;;;;;;;;;;5092371;28;20460;-71
2021/05/26 08:19:24;;;;;;;8.13;4.83;;;;;;;;;;5093989;28;20471;-69
2021/05/26 08:22:01;;;;;;;9.90;4.90;;;;;;;;;;5095539;28;20506;-70
2021/05/26 08:24:51;;;;;;;6.43;4.03;;;;;;;;;;5095513;28;20536;-70
2021/05/26 08:27:32;;;;;;;7.50;4.80;;;;;;;;;;5066190;28;20498;-70
2021/05/26 08:30:14;;;;;;;6.67;4.00;;;;;;;;;;5073790;28;20471;-71
2021/05/26 08:33:07;;;;;;;8.30;4.80;;;;;;;;;;5058044;28;20875;-70
2021/05/26 08:35:50;;;;;;;8.53;4.97;;;;;;;;;;5010527;28;20495;-70
2021/05/26 08:38:30;;;;;;;5.70;3.70;;;;;;;;;;5074028;28;20452;-71
2021/05/26 08:41:03;;;;;;;9.40;4.40;;;;;;;;;;5074571;28;20752;-71
2021/05/26 08:43:37;;;;;;;7.43;4.90;;;;;;;;;;5074884;28;21066;-70
2021/05/26 08:46:08;;;;;;;6.83;4.10;;;;;;;;;;5074733;28;20533;-72
2021/05/26 08:48:35;;;;;;;10.80;5.97;;;;;;;;;;5075779;28;20719;-70
2021/05/26 08:51:16;;;;;;;8.60;5.37;;;;;;;;;;5074762;28;20827;-71
2021/05/26 08:53:45;;;;;;;8.50;4.33;;;;;;;;;;5074818;28;20463;-70
2021/05/26 08:56:20;;;;;;;10.03;5.60;;;;;;;;;;5074997;28;20907;-71
2021/05/26 08:58:52;;;;;;;9.13;4.30;;;;;;;;;;5073363;28;20452;-69
2021/05/26 09:01:25;;;;;;;6.07;4.37;;;;;;;;;;5075038;28;20748;-72
2021/05/26 09:04:06;;;;;;;8.97;4.77;;;;;;;;;;5074965;28;20466;-71
2021/05/26 09:06:44;;;;;;;7.33;5.07;;;;;;;;;;5068833;28;20882;-71
2021/05/26 09:09:15;;;;;;;5.60;4.33;;;;;;;;;;5083544;28;20460;-71
2021/05/26 09:11:45;;;;;;;6.87;4.50;;;;;;;;;;5076146;28;20460;-70
2021/05/26 09:14:21;;;;;;;6.83;3.57;;;;;;;;;;5087424;28;20761;-70
2021/05/26 09:16:55;;;;;;;11.50;6.50;;;;;;;;;;5078550;28;20464;-71
2021/05/26 09:19:25;;;;;;;6.70;4.30;;;;;;;;;;5078139;28;20460;-71
2021/05/26 09:22:01;;;;;;;7.50;4.50;;;;;;;;;;5077891;28;20461;-70
2021/05/26 09:24:33;;;;;;;12.57;4.53;;;;;;;;;;5078086;28;20452;-71
2021/05/26 09:27:04;;;;;;;9.30;4.80;;;;;;;;;;5078715;28;20466;-71
2021/05/26 09:29:52;;;;;;;7.63;3.80;;;;;;;;;;5077833;28;20464;-72
2021/05/26 09:32:36;;;;;;;6.40;3.40;;;;;;;;;;5077766;28;20535;-70
2021/05/26 09:35:22;;;;;;;;;;;;;;;;;;;;;
2021/05/26 09:38:05;;;;;;;5.10;3.73;;;;;;;;;;5076360;28;20852;-71
2021/05/26 09:40:40;;;;;;;6.03;4.20;;;;;;;;;;5077463;28;20452;-71
2021/05/26 09:43:11;;;;;;;13.23;5.03;;;;;;;;;;5077234;28;20483;-72
2021/05/26 09:45:38;;;;;;;5.93;4.00;;;;;;;;;;5075545;28;20673;-76
2021/05/26 09:51:12;;;;;;;9.07;4.07;;;;;;;;;;5077266;28;20463;-71
2021/05/26 09:54:09;;;;;;;11.30;5.93;;;;;;;;;;5077350;28;20558;-71
2021/05/26 09:56:45;;;;;;;9.80;6.00;;;;;;;;;;5076903;28;20452;-72
2021/05/26 09:59:24;;;;;;;7.97;5.10;;;;;;;;;;5078256;28;20464;-70
2021/05/26 10:02:06;;;;;;;8.97;5.57;;;;;;;;;;5077445;28;20464;-70
2021/05/26 10:04:42;;;;;;;10.17;5.13;;;;;;;;;;5061940;28;20948;-71
2021/05/26 10:10:10;;;;;;;8.13;6.17;;;;;;;;;;5074606;28;20551;-70
2021/05/26 10:12:45;;;;;;;6.43;4.60;;;;;;;;;;5078065;28;20507;-69
2021/05/26 10:15:22;;;;;;;8.73;5.93;;;;;;;;;;5076739;28;20479;-70
2021/05/26 10:17:53;;;;;;;6.37;5.07;;;;;;;;;;5090437;28;20455;-70
2021/05/26 10:20:24;;;;;;;9.83;4.70;;;;;;;;;;5097475;28;20771;-70
2021/05/26 10:26:14;;;;;;;7.00;3.93;;;;;;;;;;5069881;28;20470;-71
2021/05/26 10:28:51;;;;;;;4.80;3.60;;;;;;;;;;5077272;28;20537;-71
2021/05/26 10:31:37;;;;;;;6.17;3.43;;;;;;;;;;5086289;28;20463;-71
2021/05/26 10:34:08;;;;;;;4.00;3.60;;;;;;;;;;5085457;27;20490;-70
2021/05/26 10:36:53;;;;;;;5.30;3.30;;;;;;;;;;5096655;28;20488;-69
2021/05/26 10:39:30;;;;;;;5.50;4.43;;;;;;;;;;5098087;28;20458;-70
2021/05/26 10:42:12;;;;;;;8.80;5.80;;;;;;;;;;5088629;28;20472;-71
2021/05/26 10:45:10;;;;;;;6.17;3.53;;;;;;;;;;5071560;28;20777;-70
2021/05/26 10:47:47;;;;;;;6.03;3.50;;;;;;;;;;5039441;28;20564;-69
2021/05/26 10:50:20;;;;;;;4.87;3.47;;;;;;;;;;5075046;28;20527;-71
2021/05/26 10:53:08;;;;;;;8.47;3.70;;;;;;;;;;5079171;28;20554;-70
2021/05/26 10:55:40;;;;;;;6.67;4.40;;;;;;;;;;5096004;28;20771;-70
2021/05/26 10:58:26;;;;;;;9.67;4.90;;;;;;;;;;5096709;28;20886;-69
2021/05/26 11:01:11;;;;;;;6.10;4.07;;;;;;;;;;5095997;28;20455;-69
2021/05/26 11:03:39;;;;;;;7.10;3.60;;;;;;;;;;5095786;28;20575;-70
2021/05/26 11:06:41;;;;;;;10.03;4.83;;;;;;;;;;5096825;28;20463;-69
2021/05/26 11:09:18;;;;;;;6.13;4.00;;;;;;;;;;5093450;28;20443;-69
2021/05/26 11:12:07;;;;;;;6.13;2.33;;;;;;;;;;5094448;28;20474;-69
2021/05/26 11:17:40;;;;;;;6.07;3.50;;;;;;;;;;5075415;28;20685;-69
2021/05/26 11:20:11;;;;;;;8.20;3.07;;;;;;;;;;5077362;28;20853;-70
2021/05/26 11:22:39;;;;;;;5.43;2.30;;;;;;;;;;5086068;28;20483;-70
2021/05/26 11:25:12;;;;;;;3.90;1.97;;;;;;;;;;5091390;28;20467;-70
2021/05/26 11:28:04;;;;;;;5.33;2.70;;;;;;;;;;5075587;28;20566;-69
2021/05/26 11:30:37;;;;;;;3.03;2.40;;;;;;;;;;5068205;28;20472;-71
2021/05/26 11:33:17;;;;;;;9.77;2.97;;;;;;;;;;5093588;28;20459;-70
2021/05/26 11:35:54;;;;;;;6.20;3.23;;;;;;;;;;5094801;28;20494;-70
2021/05/26 11:38:31;;;;;;;3.43;2.27;;;;;;;;;;5095737;28;20451;-71
2021/05/26 11:41:26;;;;;;;5.80;3.10;;;;;;;;;;5075254;28;20472;-70
2021/05/26 11:44:00;;;;;;;5.50;4.00;;;;;;;;;;5074578;28;20459;-71
2021/05/26 11:46:28;;;;;;;6.30;3.67;;;;;;;;;;5074856;28;20529;-72
2021/05/26 11:48:58;;;;;;;6.80;4.87;;;;;;;;;;5075594;28;20463;-70
2021/05/26 11:51:34;;;;;;;5.50;3.77;;;;;;;;;;5079612;28;20533;-71
2021/05/26 11:54:02;;;;;;;3.13;2.53;;;;;;;;;;5092626;27;20490;-69
2021/05/26 11:56:32;;;;;;;5.47;3.10;;;;;;;;;;5109914;27;20556;-71
2021/05/26 11:59:08;;;;;;;2.80;2.50;;;;;;;;;;5115528;27;20451;-71
2021/05/26 12:01:37;;;;;;;3.80;1.97;;;;;;;;;;5114828;27;20469;-70
2021/05/26 12:04:21;;;;;;;3.10;2.10;;;;;;;;;;5114943;27;20442;-70
2021/05/26 12:07:01;;;;;;;6.10;2.70;;;;;;;;;;5114972;27;20542;-70
2021/05/26 12:09:31;;;;;;;6.80;4.40;;;;;;;;;;5114996;27;20557;-70
2021/05/26 12:11:59;;;;;;;4.77;2.83;;;;;;;;;;5095375;28;20548;-70
2021/05/26 12:14:31;;;;;;;5.50;3.67;;;;;;;;;;5095415;28;20796;-70
2021/05/26 12:17:02;;;;;;;7.07;3.90;;;;;;;;;;5093798;28;20472;-70
2021/05/26 12:19:42;;;;;;;7.63;4.40;;;;;;;;;;5086755;28;20540;-69
2021/05/26 12:22:17;;;;;;;7.30;4.50;;;;;;;;;;5084638;28;20470;-70
2021/05/26 12:24:56;;;;;;;7.27;4.60;;;;;;;;;;5085640;28;20467;-70
2021/05/26 12:31:10;;;;;;;5.97;4.27;;;;;;;;;;5060181;28;20472;-70
2021/05/26 12:33:46;;;;;;;6.00;3.80;;;;;;;;;;5094307;28;20464;-70
2021/05/26 12:36:38;;;;;;;10.40;4.03;;;;;;;;;;5096062;28;20515;-69
2021/05/26 12:39:28;;;;;;;10.53;4.20;;;;;;;;;;5093320;28;20492;-70
2021/05/26 12:42:07;;;;;;;7.77;4.53;;;;;;;;;;5094499;28;20451;-71
2021/05/26 12:44:46;;;;;;;4.63;3.17;;;;;;;;;;5085667;28;20466;-71
2021/05/26 12:47:24;;;;;;;5.93;3.73;;;;;;;;;;5079695;28;20448;-71
2021/05/26 12:50:10;;;;;;;6.10;2.60;;;;;;;;;;5078616;28;20471;-71
2021/05/26 12:52:40;;;;;;;3.73;2.57;;;;;;;;;;5079716;28;20452;-70
2021/05/26 12:55:28;;;;;;;5.60;2.83;;;;;;;;;;5079084;28;21158;-70
2021/05/26 12:58:05;;;;;;;5.57;2.77;;;;;;;;;;5106659;27;20457;-69
2021/05/26 13:00:40;;;;;;;3.60;2.13;;;;;;;;;;5103075;28;20476;-71
2021/05/26 13:03:34;;;;;;;5.17;2.47;;;;;;;;;;5117215;27;20857;-69
2021/05/26 13:06:15;;;;;;;3.20;2.40;;;;;;;;;;5098513;28;20455;-71
2021/05/26 13:09:14;;;;;;;4.43;3.07;;;;;;;;;;5098887;28;20622;-71
2021/05/26 13:11:51;;;;;;;3.77;2.57;;;;;;;;;;5086437;28;20454;-70
2021/05/26 13:14:32;;;;;;;5.53;3.10;;;;;;;;;;5099270;28;20471;-70
2021/05/26 13:19:47;;;;;;;8.83;3.03;;;;;;;;;;5098455;28;20481;-71
2021/05/26 13:22:18;;;;;;;6.17;3.17;;;;;;;;;;5099251;28;20451;-70
2021/05/26 13:24:48;;;;;;;5.57;2.70;;;;;;;;;;5092199;28;20566;-70
2021/05/26 13:27:23;;;;;;;6.80;2.73;;;;;;;;;;5097612;28;20516;-70
2021/05/26 13:29:52;;;;;;;5.63;3.10;;;;;;;;;;5096627;28;20494;-69
2021/05/26 13:32:32;;;;;;;5.10;3.33;;;;;;;;;;5099792;28;20952;-71
2021/05/26 13:35:17;;;;;;;5.13;2.90;;;;;;;;;;5098302;28;21049;-71
2021/05/26 13:38:09;;;;;;;4.93;2.63;;;;;;;;;;5056652;28;20461;-70
2021/05/26 13:43:50;;;;;;;4.53;2.40;;;;;;;;;;5072764;28;20526;-71
2021/05/26 13:46:30;;;;;;;3.87;2.30;;;;;;;;;;5086799;28;20463;-70
2021/05/26 13:49:23;;;;;;;8.63;2.13;;;;;;;;;;5077232;28;20464;-70
2021/05/26 13:54:41;;;;;;;3.10;2.40;;;;;;;;;;5077619;28;20818;-71
2021/05/26 13:57:09;;;;;;;4.67;2.90;;;;;;;;;;5096804;28;20456;-71
2021/05/26 13:59:39;;;;;;;3.87;2.10;;;;;;;;;;5097519;28;20466;-71
2021/05/26 14:02:09;;;;;;;2.90;1.30;;;;;;;;;;5098797;28;20451;-71
2021/05/26 14:04:43;;;;;;;3.60;1.33;;;;;;;;;;5099339;28;20470;-69
2021/05/26 14:07:31;;;;;;;3.30;1.30;;;;;;;;;;5098150;28;20875;-72
2021/05/26 14:10:16;;;;;;;2.90;1.20;;;;;;;;;;5097631;28;20891;-69
2021/05/26 14:13:12;;;;;;;2.43;1.00;;;;;;;;;;5099214;27;20470;-69
2021/05/26 14:15:50;;;;;;;6.43;1.63;;;;;;;;;;5077887;28;20579;-71
2021/05/26 14:18:29;;;;;;;2.83;1.30;;;;;;;;;;5078106;28;20452;-70
2021/05/26 14:21:07;;;;;;;2.83;1.30;;;;;;;;;;5077830;28;20471;-70
2021/05/26 14:23:54;;;;;;;;;;;;;;;;;;;;;
2021/05/26 14:26:42;;;;;;;3.13;1.60;;;;;;;;;;5077426;28;20461;-70
2021/05/26 14:29:18;;;;;;;3.53;2.10;;;;;;;;;;5076533;28;20453;-71
2021/05/26 14:32:05;;;;;;;3.37;2.20;;;;;;;;;;5082331;28;20448;-73
2021/05/26 14:35:03;;;;;;;2.40;1.97;;;;;;;;;;5076828;28;20467;-71
2021/05/26 14:38:05;;;;;;;3.00;1.63;;;;;;;;;;5026907;28;20454;-70
2021/05/26 14:41:11;;;;;;;;;;;;;;;;;;;;;
2021/05/26 14:44:09;;;;;;;;;;;;;;;;;;;;;
2021/05/26 14:58:25;;;;;;;4.17;3.10;;;;;;;;;;5114288;27;20486;-69
2021/05/26 15:04:02;;;;;;;7.77;4.17;;;;;;;;;;5103719;28;20454;-71
2021/05/26 15:06:36;;;;;;;5.70;2.33;;;;;;;;;;5097090;28;20466;-70
2021/05/26 15:09:05;;;;;;;5.27;2.30;;;;;;;;;;5096454;28;20460;-70
2021/05/26 15:11:49;;;;;;;3.63;2.63;;;;;;;;;;5097353;28;20470;-70
2021/05/26 15:14:42;;;;;;;5.23;2.50;;;;;;;;;;5106967;27;20450;-70
2021/05/26 15:17:20;;;;;;;4.80;2.67;;;;;;;;;;5116438;27;20880;-70
2021/05/26 15:20:10;;;;;;;4.90;2.60;;;;;;;;;;5109519;27;20565;-69
2021/05/26 15:25:53;;;;;;;5.03;3.53;;;;;;;;;;5098097;28;20452;-71
2021/05/26 15:28:34;;;;;;;5.90;3.30;;;;;;;;;;5101068;27;20751;-70
2021/05/26 15:31:15;;;;;;;3.33;2.70;;;;;;;;;;5098239;27;20494;-70
2021/05/26 15:36:42;;;;;;;5.47;2.83;;;;;;;;;;5087135;28;20479;-71
2021/05/26 15:39:29;;;;;;;3.00;2.23;;;;;;;;;;5097768;28;20467;-71
2021/05/26 15:42:02;;;;;;;4.10;2.70;;;;;;;;;;5096898;28;20879;-71
2021/05/26 15:50:51;;;;;;;3.50;2.40;;;;;;;;;;5041630;28;21027;-71
2021/05/26 15:53:54;;;;;;;3.90;2.37;;;;;;;;;;5054167;28;20453;-71
2021/05/26 15:56:40;;;;;;;5.63;2.73;;;;;;;;;;5103387;27;20483;-70
2021/05/26 15:59:34;;;;;;;5.30;2.17;;;;;;;;;;5104575;28;20460;-71
2021/05/26 16:02:16;;;;;;;3.33;2.50;;;;;;;;;;5116982;27;20519;-71
2021/05/26 16:05:21;;;;;;;6.80;2.43;;;;;;;;;;5100622;27;20444;-71
2021/05/26 16:13:59;;;;;;;3.10;2.03;;;;;;;;;;5110685;27;20866;-70
2021/05/26 16:16:38;;;;;;;2.97;2.20;;;;;;;;;;5101678;27;20973;-70
2021/05/26 16:25:32;;;;;;;3.80;1.57;;;;;;;;;;5030888;28;21065;-70
2021/05/26 16:28:03;;;;;;;3.30;1.60;;;;;;;;;;5096195;28;20455;-70
2021/05/26 16:31:02;;;;;;;2.20;1.27;;;;;;;;;;5054315;28;21105;-70